Kendalia, Texas
Current Conditions -  °F | °C
As of 11:55 AM on Thursday 30 Oct 2014 (Local Time) from K5C1 Reporting Station
Scattered Clouds Scattered Clouds  
Wind Chill: 73°   Ceiling: Unl
Heat Index: 73°   Visibility: 10mi
Dew Point: 64°   Wind: 5mph
Humidity: 73%   Direction: 140°SE
Pressure: 30.17"   Gusts: NA
Location:  29.97°N, 98.52°W
Report Text: K5C1 301655Z AUTO 14004KT 10SM SCT013 23/18 A3017 RMK AO1
Loading
Personal Weather Stations






























Interactive Weather Map
Tropical Storm Tracking
New forecast layout! Learn more

10-Day Weather Forecast

Advertisements
Track Severe Weather on mobile